sensor_id;sensor_type;location;lat;lon;timestamp;P1;durP1;ratioP1;P2;durP2;ratioP2
70233;SDS011;75981;42.636;23.376;2024-02-15T00:00:28;11.23;;;6.50;;
70233;SDS011;75981;42.636;23.376;2024-02-15T00:02:54;10.77;;;6.47;;
70233;SDS011;75981;42.636;23.376;2024-02-15T00:05:19;13.20;;;6.78;;
70233;SDS011;75981;42.636;23.376;2024-02-15T00:07:48;10.90;;;6.03;;
70233;SDS011;75981;42.636;23.376;2024-02-15T00:10:19;12.05;;;6.25;;
70233;SDS011;75981;42.636;23.376;2024-02-15T00:12:48;13.00;;;6.05;;
70233;SDS011;75981;42.636;23.376;2024-02-15T00:15:16;12.05;;;6.45;;
70233;SDS011;75981;42.636;23.376;2024-02-15T00:17:42;12.18;;;6.50;;
70233;SDS011;75981;42.636;23.376;2024-02-15T00:20:07;10.98;;;6.47;;
70233;SDS011;75981;42.636;23.376;2024-02-15T00:22:35;13.52;;;6.28;;
70233;SDS011;75981;42.636;23.376;2024-02-15T00:25:06;12.25;;;6.53;;
70233;SDS011;75981;42.636;23.376;2024-02-15T00:27:39;12.90;;;6.57;;
70233;SDS011;75981;42.636;23.376;2024-02-15T00:30:05;15.55;;;6.82;;
70233;SDS011;75981;42.636;23.376;2024-02-15T00:32:41;14.15;;;6.82;;
70233;SDS011;75981;42.636;23.376;2024-02-15T00:35:13;11.95;;;6.88;;
70233;SDS011;75981;42.636;23.376;2024-02-15T00:37:40;13.40;;;6.22;;
70233;SDS011;75981;42.636;23.376;2024-02-15T00:40:06;13.13;;;6.95;;
70233;SDS011;75981;42.636;23.376;2024-02-15T00:42:32;11.15;;;6.13;;
70233;SDS011;75981;42.636;23.376;2024-02-15T00:44:58;10.30;;;5.80;;
70233;SDS011;75981;42.636;23.376;2024-02-15T00:47:23;12.70;;;6.80;;
70233;SDS011;75981;42.636;23.376;2024-02-15T00:49:49;11.55;;;6.43;;
70233;SDS011;75981;42.636;23.376;2024-02-15T00:52:17;11.38;;;6.40;;
70233;SDS011;75981;42.636;23.376;2024-02-15T00:54:44;11.70;;;5.93;;
70233;SDS011;75981;42.636;23.376;2024-02-15T00:57:09;13.13;;;6.88;;
70233;SDS011;75981;42.636;23.376;2024-02-15T00:59:35;11.75;;;6.18;;
70233;SDS011;75981;42.636;23.376;2024-02-15T01:02:03;11.82;;;6.07;;
70233;SDS011;75981;42.636;23.376;2024-02-15T01:04:30;11.40;;;6.15;;
70233;SDS011;75981;42.636;23.376;2024-02-15T01:06:56;12.05;;;6.72;;
70233;SDS011;75981;42.636;23.376;2024-02-15T01:09:22;11.63;;;6.30;;
70233;SDS011;75981;42.636;23.376;2024-02-15T01:11:47;12.20;;;6.05;;
70233;SDS011;75981;42.636;23.376;2024-02-15T01:14:13;10.38;;;6.13;;
70233;SDS011;75981;42.636;23.376;2024-02-15T01:16:40;12.73;;;6.80;;
70233;SDS011;75981;42.636;23.376;2024-02-15T01:19:12;12.35;;;6.13;;
70233;SDS011;75981;42.636;23.376;2024-02-15T01:21:55;11.95;;;6.22;;
70233;SDS011;75981;42.636;23.376;2024-02-15T01:24:21;11.43;;;6.15;;
70233;SDS011;75981;42.636;23.376;2024-02-15T01:26:52;11.88;;;6.85;;
70233;SDS011;75981;42.636;23.376;2024-02-15T01:29:20;12.02;;;6.00;;
70233;SDS011;75981;42.636;23.376;2024-02-15T01:31:46;11.43;;;6.22;;
70233;SDS011;75981;42.636;23.376;2024-02-15T01:34:11;11.85;;;5.93;;
70233;SDS011;75981;42.636;23.376;2024-02-15T01:36:39;13.95;;;6.28;;
70233;SDS011;75981;42.636;23.376;2024-02-15T01:39:05;12.50;;;6.50;;
70233;SDS011;75981;42.636;23.376;2024-02-15T01:41:37;11.98;;;6.43;;
70233;SDS011;75981;42.636;23.376;2024-02-15T01:44:12;11.38;;;6.45;;
70233;SDS011;75981;42.636;23.376;2024-02-15T01:46:40;12.45;;;6.93;;
70233;SDS011;75981;42.636;23.376;2024-02-15T01:49:21;11.45;;;6.07;;
70233;SDS011;75981;42.636;23.376;2024-02-15T01:51:56;13.15;;;6.75;;
70233;SDS011;75981;42.636;23.376;2024-02-15T01:54:27;11.85;;;6.75;;
70233;SDS011;75981;42.636;23.376;2024-02-15T01:57:03;11.25;;;5.95;;
70233;SDS011;75981;42.636;23.376;2024-02-15T01:59:58;12.65;;;6.80;;
70233;SDS011;75981;42.636;23.376;2024-02-15T02:02:39;12.30;;;6.28;;
70233;SDS011;75981;42.636;23.376;2024-02-15T02:05:08;11.82;;;6.53;;
70233;SDS011;75981;42.636;23.376;2024-02-15T02:07:43;12.98;;;6.10;;
70233;SDS011;75981;42.636;23.376;2024-02-15T02:14:25;13.13;;;6.57;;
70233;SDS011;75981;42.636;23.376;2024-02-15T02:17:31;11.45;;;5.95;;
70233;SDS011;75981;42.636;23.376;2024-02-15T02:20:02;12.70;;;6.30;;
70233;SDS011;75981;42.636;23.376;2024-02-15T02:22:33;13.68;;;6.90;;
70233;SDS011;75981;42.636;23.376;2024-02-15T02:27:35;11.70;;;6.43;;
70233;SDS011;75981;42.636;23.376;2024-02-15T02:30:02;13.52;;;6.32;;
70233;SDS011;75981;42.636;23.376;2024-02-15T02:32:32;13.07;;;6.15;;
70233;SDS011;75981;42.636;23.376;2024-02-15T02:34:58;11.85;;;6.18;;
70233;SDS011;75981;42.636;23.376;2024-02-15T02:37:26;12.65;;;6.25;;
70233;SDS011;75981;42.636;23.376;2024-02-15T02:39:54;12.57;;;6.60;;
70233;SDS011;75981;42.636;23.376;2024-02-15T02:42:20;13.45;;;6.45;;
70233;SDS011;75981;42.636;23.376;2024-02-15T02:44:46;13.30;;;7.03;;
70233;SDS011;75981;42.636;23.376;2024-02-15T02:47:14;13.32;;;7.28;;
70233;SDS011;75981;42.636;23.376;2024-02-15T02:49:40;12.35;;;6.57;;
70233;SDS011;75981;42.636;23.376;2024-02-15T02:52:05;11.73;;;6.45;;
70233;SDS011;75981;42.636;23.376;2024-02-15T02:57:26;12.88;;;6.57;;
70233;SDS011;75981;42.636;23.376;2024-02-15T02:59:57;12.00;;;6.40;;
70233;SDS011;75981;42.636;23.376;2024-02-15T03:02:36;12.70;;;6.60;;
70233;SDS011;75981;42.636;23.376;2024-02-15T03:05:25;13.63;;;6.97;;
70233;SDS011;75981;42.636;23.376;2024-02-15T03:08:23;11.57;;;6.32;;
70233;SDS011;75981;42.636;23.376;2024-02-15T03:10:49;13.70;;;6.95;;
70233;SDS011;75981;42.636;23.376;2024-02-15T03:13:16;14.15;;;7.05;;
70233;SDS011;75981;42.636;23.376;2024-02-15T03:15:44;13.00;;;6.57;;
70233;SDS011;75981;42.636;23.376;2024-02-15T03:18:14;13.50;;;6.80;;
70233;SDS011;75981;42.636;23.376;2024-02-15T03:20:42;11.80;;;7.18;;
70233;SDS011;75981;42.636;23.376;2024-02-15T03:23:08;14.15;;;7.38;;
70233;SDS011;75981;42.636;23.376;2024-02-15T03:25:33;13.40;;;7.30;;
70233;SDS011;75981;42.636;23.376;2024-02-15T03:27:59;11.80;;;7.10;;
70233;SDS011;75981;42.636;23.376;2024-02-15T03:30:30;14.13;;;7.63;;
70233;SDS011;75981;42.636;23.376;2024-02-15T03:32:59;17.30;;;7.63;;
70233;SDS011;75981;42.636;23.376;2024-02-15T03:35:25;13.85;;;7.03;;
70233;SDS011;75981;42.636;23.376;2024-02-15T03:37:53;11.88;;;7.07;;
70233;SDS011;75981;42.636;23.376;2024-02-15T03:40:19;13.50;;;7.18;;
70233;SDS011;75981;42.636;23.376;2024-02-15T03:42:46;14.20;;;7.28;;
70233;SDS011;75981;42.636;23.376;2024-02-15T03:45:11;15.43;;;7.60;;
70233;SDS011;75981;42.636;23.376;2024-02-15T03:47:37;15.05;;;7.80;;
70233;SDS011;75981;42.636;23.376;2024-02-15T03:50:06;14.82;;;7.57;;
70233;SDS011;75981;42.636;23.376;2024-02-15T03:52:35;12.93;;;7.18;;
70233;SDS011;75981;42.636;23.376;2024-02-15T03:55:01;14.02;;;7.25;;
70233;SDS011;75981;42.636;23.376;2024-02-15T03:57:27;14.73;;;7.85;;
70233;SDS011;75981;42.636;23.376;2024-02-15T03:59:55;14.95;;;7.43;;
70233;SDS011;75981;42.636;23.376;2024-02-15T04:02:24;14.18;;;7.47;;
70233;SDS011;75981;42.636;23.376;2024-02-15T04:04:55;14.05;;;7.50;;
70233;SDS011;75981;42.636;23.376;2024-02-15T04:07:21;14.90;;;8.05;;
70233;SDS011;75981;42.636;23.376;2024-02-15T04:09:49;14.00;;;7.28;;
70233;SDS011;75981;42.636;23.376;2024-02-15T04:12:15;14.07;;;7.05;;
70233;SDS011;75981;42.636;23.376;2024-02-15T04:14:41;14.25;;;7.13;;
70233;SDS011;75981;42.636;23.376;2024-02-15T04:17:10;13.63;;;6.88;;
70233;SDS011;75981;42.636;23.376;2024-02-15T04:19:36;13.57;;;6.38;;
70233;SDS011;75981;42.636;23.376;2024-02-15T04:22:02;13.20;;;6.72;;
70233;SDS011;75981;42.636;23.376;2024-02-15T04:24:32;12.60;;;7.07;;
70233;SDS011;75981;42.636;23.376;2024-02-15T04:26:59;13.25;;;7.45;;
70233;SDS011;75981;42.636;23.376;2024-02-15T04:29:25;12.82;;;6.95;;
70233;SDS011;75981;42.636;23.376;2024-02-15T04:31:50;16.73;;;7.07;;
70233;SDS011;75981;42.636;23.376;2024-02-15T04:34:16;17.38;;;7.50;;
70233;SDS011;75981;42.636;23.376;2024-02-15T04:36:46;14.85;;;6.90;;
70233;SDS011;75981;42.636;23.376;2024-02-15T04:39:16;12.45;;;6.97;;
70233;SDS011;75981;42.636;23.376;2024-02-15T04:41:50;13.23;;;7.05;;
70233;SDS011;75981;42.636;23.376;2024-02-15T04:44:16;13.05;;;7.43;;
70233;SDS011;75981;42.636;23.376;2024-02-15T04:46:42;16.05;;;7.70;;
70233;SDS011;75981;42.636;23.376;2024-02-15T04:49:10;13.73;;;7.35;;
70233;SDS011;75981;42.636;23.376;2024-02-15T04:51:36;16.02;;;7.68;;
70233;SDS011;75981;42.636;23.376;2024-02-15T04:54:01;16.90;;;7.63;;
70233;SDS011;75981;42.636;23.376;2024-02-15T04:56:27;13.75;;;7.72;;
70233;SDS011;75981;42.636;23.376;2024-02-15T04:58:53;13.98;;;7.32;;
70233;SDS011;75981;42.636;23.376;2024-02-15T05:01:19;12.65;;;7.03;;
70233;SDS011;75981;42.636;23.376;2024-02-15T05:03:45;14.20;;;7.13;;
70233;SDS011;75981;42.636;23.376;2024-02-15T05:06:10;18.83;;;7.10;;
70233;SDS011;75981;42.636;23.376;2024-02-15T05:08:40;11.88;;;6.47;;
70233;SDS011;75981;42.636;23.376;2024-02-15T05:11:13;14.05;;;7.32;;
70233;SDS011;75981;42.636;23.376;2024-02-15T05:13:43;13.25;;;7.38;;
70233;SDS011;75981;42.636;23.376;2024-02-15T05:16:12;13.27;;;6.90;;
70233;SDS011;75981;42.636;23.376;2024-02-15T05:18:38;17.75;;;7.22;;
70233;SDS011;75981;42.636;23.376;2024-02-15T05:21:05;15.57;;;7.88;;
70233;SDS011;75981;42.636;23.376;2024-02-15T05:23:34;16.20;;;8.48;;
70233;SDS011;75981;42.636;23.376;2024-02-15T05:26:01;14.05;;;7.43;;
70233;SDS011;75981;42.636;23.376;2024-02-15T05:28:51;12.77;;;6.57;;
70233;SDS011;75981;42.636;23.376;2024-02-15T05:31:17;14.35;;;7.35;;
70233;SDS011;75981;42.636;23.376;2024-02-15T05:33:48;15.68;;;7.68;;
70233;SDS011;75981;42.636;23.376;2024-02-15T05:36:37;13.88;;;7.60;;
70233;SDS011;75981;42.636;23.376;2024-02-15T05:39:03;14.68;;;7.30;;
70233;SDS011;75981;42.636;23.376;2024-02-15T05:41:30;14.70;;;8.18;;
70233;SDS011;75981;42.636;23.376;2024-02-15T05:43:57;28.45;;;15.07;;
70233;SDS011;75981;42.636;23.376;2024-02-15T05:46:23;12.85;;;6.78;;
70233;SDS011;75981;42.636;23.376;2024-02-15T05:48:49;15.23;;;7.68;;
70233;SDS011;75981;42.636;23.376;2024-02-15T05:51:18;13.05;;;6.65;;
70233;SDS011;75981;42.636;23.376;2024-02-15T05:53:44;15.05;;;8.38;;
70233;SDS011;75981;42.636;23.376;2024-02-15T05:56:10;16.23;;;7.90;;
70233;SDS011;75981;42.636;23.376;2024-02-15T05:58:36;15.52;;;7.90;;
70233;SDS011;75981;42.636;23.376;2024-02-15T06:01:02;12.63;;;7.05;;
70233;SDS011;75981;42.636;23.376;2024-02-15T06:03:35;14.15;;;7.43;;
70233;SDS011;75981;42.636;23.376;2024-02-15T06:06:03;16.38;;;7.60;;
70233;SDS011;75981;42.636;23.376;2024-02-15T06:08:34;14.32;;;7.20;;
70233;SDS011;75981;42.636;23.376;2024-02-15T06:11:01;18.15;;;7.57;;
70233;SDS011;75981;42.636;23.376;2024-02-15T06:13:27;16.77;;;8.07;;
70233;SDS011;75981;42.636;23.376;2024-02-15T06:15:53;17.55;;;7.65;;
70233;SDS011;75981;42.636;23.376;2024-02-15T06:18:21;18.88;;;7.88;;
70233;SDS011;75981;42.636;23.376;2024-02-15T06:20:51;18.52;;;7.65;;
70233;SDS011;75981;42.636;23.376;2024-02-15T06:23:18;17.17;;;7.78;;
70233;SDS011;75981;42.636;23.376;2024-02-15T06:25:53;13.27;;;6.88;;
70233;SDS011;75981;42.636;23.376;2024-02-15T06:28:20;12.45;;;6.97;;
70233;SDS011;75981;42.636;23.376;2024-02-15T06:31:04;14.77;;;7.57;;
70233;SDS011;75981;42.636;23.376;2024-02-15T06:33:48;15.02;;;7.30;;
70233;SDS011;75981;42.636;23.376;2024-02-15T06:36:32;15.23;;;6.53;;
70233;SDS011;75981;42.636;23.376;2024-02-15T06:39:16;15.95;;;7.95;;
70233;SDS011;75981;42.636;23.376;2024-02-15T06:42:00;13.50;;;6.70;;
70233;SDS011;75981;42.636;23.376;2024-02-15T06:44:26;16.95;;;7.80;;
70233;SDS011;75981;42.636;23.376;2024-02-15T06:46:52;15.65;;;7.28;;
70233;SDS011;75981;42.636;23.376;2024-02-15T06:49:17;16.80;;;7.50;;
70233;SDS011;75981;42.636;23.376;2024-02-15T06:51:43;15.50;;;7.18;;
70233;SDS011;75981;42.636;23.376;2024-02-15T06:54:08;13.63;;;7.50;;
70233;SDS011;75981;42.636;23.376;2024-02-15T06:56:37;16.15;;;7.40;;
70233;SDS011;75981;42.636;23.376;2024-02-15T06:59:03;15.45;;;7.15;;
70233;SDS011;75981;42.636;23.376;2024-02-15T07:01:28;16.70;;;7.93;;
70233;SDS011;75981;42.636;23.376;2024-02-15T07:03:54;15.82;;;7.63;;
70233;SDS011;75981;42.636;23.376;2024-02-15T07:06:21;13.50;;;6.95;;
70233;SDS011;75981;42.636;23.376;2024-02-15T07:08:47;18.20;;;7.97;;
70233;SDS011;75981;42.636;23.376;2024-02-15T07:11:15;13.35;;;7.25;;
70233;SDS011;75981;42.636;23.376;2024-02-15T07:13:41;17.42;;;8.07;;
70233;SDS011;75981;42.636;23.376;2024-02-15T07:16:07;16.02;;;7.95;;
70233;SDS011;75981;42.636;23.376;2024-02-15T07:18:33;22.23;;;7.90;;
70233;SDS011;75981;42.636;23.376;2024-02-15T07:20:59;13.88;;;7.13;;
70233;SDS011;75981;42.636;23.376;2024-02-15T07:23:26;13.60;;;6.90;;
70233;SDS011;75981;42.636;23.376;2024-02-15T07:25:52;14.13;;;7.53;;
70233;SDS011;75981;42.636;23.376;2024-02-15T07:28:19;16.13;;;7.45;;
70233;SDS011;75981;42.636;23.376;2024-02-15T07:30:46;14.48;;;7.32;;
70233;SDS011;75981;42.636;23.376;2024-02-15T07:33:13;14.65;;;8.07;;
70233;SDS011;75981;42.636;23.376;2024-02-15T07:35:42;16.17;;;8.00;;
70233;SDS011;75981;42.636;23.376;2024-02-15T07:38:08;16.25;;;7.97;;
70233;SDS011;75981;42.636;23.376;2024-02-15T07:40:35;16.75;;;7.50;;
70233;SDS011;75981;42.636;23.376;2024-02-15T07:43:00;14.73;;;7.55;;
70233;SDS011;75981;42.636;23.376;2024-02-15T07:45:28;15.75;;;6.90;;
70233;SDS011;75981;42.636;23.376;2024-02-15T07:47:54;15.15;;;7.40;;
70233;SDS011;75981;42.636;23.376;2024-02-15T07:50:20;16.33;;;7.00;;
70233;SDS011;75981;42.636;23.376;2024-02-15T07:52:48;16.83;;;7.32;;
70233;SDS011;75981;42.636;23.376;2024-02-15T07:55:14;16.13;;;6.53;;
70233;SDS011;75981;42.636;23.376;2024-02-15T07:57:39;14.80;;;6.68;;
70233;SDS011;75981;42.636;23.376;2024-02-15T08:00:05;15.13;;;7.18;;
70233;SDS011;75981;42.636;23.376;2024-02-15T08:02:35;14.05;;;6.63;;
70233;SDS011;75981;42.636;23.376;2024-02-15T08:05:07;12.30;;;6.50;;
70233;SDS011;75981;42.636;23.376;2024-02-15T08:07:44;12.60;;;6.57;;
70233;SDS011;75981;42.636;23.376;2024-02-15T08:10:10;14.07;;;7.05;;
70233;SDS011;75981;42.636;23.376;2024-02-15T08:15:06;17.77;;;7.00;;
70233;SDS011;75981;42.636;23.376;2024-02-15T08:17:37;18.98;;;7.35;;
70233;SDS011;75981;42.636;23.376;2024-02-15T08:20:15;18.08;;;7.13;;
70233;SDS011;75981;42.636;23.376;2024-02-15T08:22:47;13.80;;;6.60;;
70233;SDS011;75981;42.636;23.376;2024-02-15T08:25:13;18.25;;;7.28;;
70233;SDS011;75981;42.636;23.376;2024-02-15T08:27:41;15.25;;;7.68;;
70233;SDS011;75981;42.636;23.376;2024-02-15T08:30:11;18.33;;;8.63;;
70233;SDS011;75981;42.636;23.376;2024-02-15T08:32:38;15.85;;;8.10;;
70233;SDS011;75981;42.636;23.376;2024-02-15T08:35:05;15.10;;;8.35;;
70233;SDS011;75981;42.636;23.376;2024-02-15T08:37:32;13.95;;;6.70;;
70233;SDS011;75981;42.636;23.376;2024-02-15T08:40:00;14.98;;;7.28;;
70233;SDS011;75981;42.636;23.376;2024-02-15T08:42:26;16.00;;;7.75;;
70233;SDS011;75981;42.636;23.376;2024-02-15T08:44:51;15.27;;;7.63;;
70233;SDS011;75981;42.636;23.376;2024-02-15T08:47:17;13.77;;;7.25;;
70233;SDS011;75981;42.636;23.376;2024-02-15T08:49:42;14.48;;;7.38;;
70233;SDS011;75981;42.636;23.376;2024-02-15T08:52:08;12.73;;;7.32;;
70233;SDS011;75981;42.636;23.376;2024-02-15T08:54:33;15.48;;;7.70;;
70233;SDS011;75981;42.636;23.376;2024-02-15T08:56:59;11.98;;;6.78;;
70233;SDS011;75981;42.636;23.376;2024-02-15T08:59:26;14.10;;;6.57;;
70233;SDS011;75981;42.636;23.376;2024-02-15T09:01:53;17.30;;;7.13;;
70233;SDS011;75981;42.636;23.376;2024-02-15T09:04:20;16.17;;;7.70;;
70233;SDS011;75981;42.636;23.376;2024-02-15T09:06:48;20.38;;;7.72;;
70233;SDS011;75981;42.636;23.376;2024-02-15T09:09:13;13.25;;;6.72;;
70233;SDS011;75981;42.636;23.376;2024-02-15T09:11:39;11.93;;;6.60;;
70233;SDS011;75981;42.636;23.376;2024-02-15T09:14:04;17.40;;;7.07;;
70233;SDS011;75981;42.636;23.376;2024-02-15T09:16:30;16.20;;;7.53;;
70233;SDS011;75981;42.636;23.376;2024-02-15T09:18:56;17.60;;;7.00;;
70233;SDS011;75981;42.636;23.376;2024-02-15T09:21:25;13.77;;;6.97;;
70233;SDS011;75981;42.636;23.376;2024-02-15T09:23:53;17.42;;;6.95;;
70233;SDS011;75981;42.636;23.376;2024-02-15T09:26:19;13.68;;;6.88;;
70233;SDS011;75981;42.636;23.376;2024-02-15T09:28:44;13.95;;;7.57;;
70233;SDS011;75981;42.636;23.376;2024-02-15T09:31:12;16.45;;;7.20;;
70233;SDS011;75981;42.636;23.376;2024-02-15T09:33:39;13.27;;;6.80;;
70233;SDS011;75981;42.636;23.376;2024-02-15T09:36:05;14.82;;;7.03;;
70233;SDS011;75981;42.636;23.376;2024-02-15T09:38:31;12.63;;;6.82;;
70233;SDS011;75981;42.636;23.376;2024-02-15T09:40:57;13.35;;;7.25;;
70233;SDS011;75981;42.636;23.376;2024-02-15T09:43:22;15.38;;;7.40;;
70233;SDS011;75981;42.636;23.376;2024-02-15T09:45:54;11.50;;;6.35;;
70233;SDS011;75981;42.636;23.376;2024-02-15T09:48:19;14.23;;;6.33;;
70233;SDS011;75981;42.636;23.376;2024-02-15T09:50:50;11.43;;;6.35;;
70233;SDS011;75981;42.636;23.376;2024-02-15T09:53:21;12.52;;;6.57;;
70233;SDS011;75981;42.636;23.376;2024-02-15T09:55:51;12.60;;;6.47;;
70233;SDS011;75981;42.636;23.376;2024-02-15T09:58:21;12.35;;;6.50;;
70233;SDS011;75981;42.636;23.376;2024-02-15T10:00:48;13.05;;;5.85;;
70233;SDS011;75981;42.636;23.376;2024-02-15T10:03:16;14.82;;;5.78;;
70233;SDS011;75981;42.636;23.376;2024-02-15T10:05:44;12.60;;;6.82;;
70233;SDS011;75981;42.636;23.376;2024-02-15T10:08:09;12.95;;;6.63;;
70233;SDS011;75981;42.636;23.376;2024-02-15T10:10:36;13.23;;;6.38;;
70233;SDS011;75981;42.636;23.376;2024-02-15T10:13:04;18.95;;;7.07;;
70233;SDS011;75981;42.636;23.376;2024-02-15T10:15:30;12.27;;;6.63;;
70233;SDS011;75981;42.636;23.376;2024-02-15T10:18:03;11.35;;;6.10;;
70233;SDS011;75981;42.636;23.376;2024-02-15T10:20:31;16.05;;;7.00;;
70233;SDS011;75981;42.636;23.376;2024-02-15T10:25:28;11.75;;;6.22;;
70233;SDS011;75981;42.636;23.376;2024-02-15T10:28:10;13.82;;;6.50;;
70233;SDS011;75981;42.636;23.376;2024-02-15T10:30:37;11.05;;;6.18;;
70233;SDS011;75981;42.636;23.376;2024-02-15T10:33:05;12.32;;;6.35;;
70233;SDS011;75981;42.636;23.376;2024-02-15T10:35:32;13.45;;;6.55;;
70233;SDS011;75981;42.636;23.376;2024-02-15T10:38:08;12.05;;;6.00;;
70233;SDS011;75981;42.636;23.376;2024-02-15T10:40:35;15.43;;;6.38;;
70233;SDS011;75981;42.636;23.376;2024-02-15T10:43:04;13.15;;;6.07;;
70233;SDS011;75981;42.636;23.376;2024-02-15T10:45:34;14.27;;;6.25;;
70233;SDS011;75981;42.636;23.376;2024-02-15T10:48:02;11.90;;;6.30;;
70233;SDS011;75981;42.636;23.376;2024-02-15T10:50:30;12.38;;;5.75;;
70233;SDS011;75981;42.636;23.376;2024-02-15T10:52:56;15.90;;;8.07;;
70233;SDS011;75981;42.636;23.376;2024-02-15T10:55:38;11.68;;;6.03;;
70233;SDS011;75981;42.636;23.376;2024-02-15T10:58:05;12.05;;;5.82;;
70233;SDS011;75981;42.636;23.376;2024-02-15T11:00:35;11.25;;;5.97;;
70233;SDS011;75981;42.636;23.376;2024-02-15T11:03:05;15.07;;;6.43;;
70233;SDS011;75981;42.636;23.376;2024-02-15T11:05:36;12.10;;;6.05;;
70233;SDS011;75981;42.636;23.376;2024-02-15T11:08:07;11.85;;;6.05;;
70233;SDS011;75981;42.636;23.376;2024-02-15T11:10:34;14.43;;;5.82;;
70233;SDS011;75981;42.636;23.376;2024-02-15T11:13:01;11.95;;;6.55;;
70233;SDS011;75981;42.636;23.376;2024-02-15T11:15:40;11.43;;;5.97;;
70233;SDS011;75981;42.636;23.376;2024-02-15T11:21:16;12.30;;;6.35;;
70233;SDS011;75981;42.636;23.376;2024-02-15T11:23:42;12.60;;;5.38;;
70233;SDS011;75981;42.636;23.376;2024-02-15T11:26:10;11.82;;;5.97;;
70233;SDS011;75981;42.636;23.376;2024-02-15T11:32:58;11.18;;;6.00;;
70233;SDS011;75981;42.636;23.376;2024-02-15T11:35:06;13.15;;;5.85;;
70233;SDS011;75981;42.636;23.376;2024-02-15T11:37:51;10.02;;;5.45;;
70233;SDS011;75981;42.636;23.376;2024-02-15T11:42:52;10.63;;;4.88;;
70233;SDS011;75981;42.636;23.376;2024-02-15T11:45:19;9.70;;;5.13;;
70233;SDS011;75981;42.636;23.376;2024-02-15T11:47:49;11.20;;;5.68;;
70233;SDS011;75981;42.636;23.376;2024-02-15T11:50:20;16.65;;;6.22;;
70233;SDS011;75981;42.636;23.376;2024-02-15T11:52:50;11.18;;;5.78;;
70233;SDS011;75981;42.636;23.376;2024-02-15T11:55:21;10.40;;;5.60;;
70233;SDS011;75981;42.636;23.376;2024-02-15T11:57:57;12.93;;;5.70;;
70233;SDS011;75981;42.636;23.376;2024-02-15T12:00:38;11.55;;;5.68;;
70233;SDS011;75981;42.636;23.376;2024-02-15T12:03:22;10.32;;;5.10;;
70233;SDS011;75981;42.636;23.376;2024-02-15T12:06:06;10.35;;;5.22;;
70233;SDS011;75981;42.636;23.376;2024-02-15T12:08:51;9.73;;;4.80;;
70233;SDS011;75981;42.636;23.376;2024-02-15T12:11:36;10.32;;;5.20;;
70233;SDS011;75981;42.636;23.376;2024-02-15T12:14:21;10.93;;;5.30;;
70233;SDS011;75981;42.636;23.376;2024-02-15T12:17:06;13.15;;;5.78;;
70233;SDS011;75981;42.636;23.376;2024-02-15T12:19:51;13.02;;;5.10;;
70233;SDS011;75981;42.636;23.376;2024-02-15T12:22:27;10.95;;;4.90;;
70233;SDS011;75981;42.636;23.376;2024-02-15T12:24:56;9.80;;;5.20;;
70233;SDS011;75981;42.636;23.376;2024-02-15T12:27:23;12.07;;;5.18;;
70233;SDS011;75981;42.636;23.376;2024-02-15T12:30:01;10.48;;;5.07;;
70233;SDS011;75981;42.636;23.376;2024-02-15T12:32:30;12.75;;;5.22;;
70233;SDS011;75981;42.636;23.376;2024-02-15T12:35:14;15.10;;;5.85;;
70233;SDS011;75981;42.636;23.376;2024-02-15T12:40:30;11.25;;;5.05;;
70233;SDS011;75981;42.636;23.376;2024-02-15T12:42:57;13.88;;;6.25;;
70233;SDS011;75981;42.636;23.376;2024-02-15T12:45:24;10.77;;;4.97;;
70233;SDS011;75981;42.636;23.376;2024-02-15T12:47:53;14.25;;;5.03;;
70233;SDS011;75981;42.636;23.376;2024-02-15T12:50:21;11.45;;;5.20;;
70233;SDS011;75981;42.636;23.376;2024-02-15T12:52:49;10.38;;;4.88;;
70233;SDS011;75981;42.636;23.376;2024-02-15T12:55:16;9.10;;;5.20;;
70233;SDS011;75981;42.636;23.376;2024-02-15T12:57:44;12.77;;;6.10;;
70233;SDS011;75981;42.636;23.376;2024-02-15T13:00:33;11.55;;;4.82;;
70233;SDS011;75981;42.636;23.376;2024-02-15T13:03:03;12.07;;;5.82;;
70233;SDS011;75981;42.636;23.376;2024-02-15T13:05:33;10.65;;;5.40;;
70233;SDS011;75981;42.636;23.376;2024-02-15T13:07:59;14.98;;;5.32;;
70233;SDS011;75981;42.636;23.376;2024-02-15T13:10:27;11.80;;;5.65;;
70233;SDS011;75981;42.636;23.376;2024-02-15T13:12:53;12.18;;;5.20;;
70233;SDS011;75981;42.636;23.376;2024-02-15T13:15:20;10.02;;;4.72;;
70233;SDS011;75981;42.636;23.376;2024-02-15T13:17:51;10.27;;;4.40;;
70233;SDS011;75981;42.636;23.376;2024-02-15T13:20:17;9.20;;;4.70;;
70233;SDS011;75981;42.636;23.376;2024-02-15T13:22:45;9.95;;;4.18;;
70233;SDS011;75981;42.636;23.376;2024-02-15T13:25:14;9.65;;;4.25;;
70233;SDS011;75981;42.636;23.376;2024-02-15T13:27:46;9.13;;;4.68;;
70233;SDS011;75981;42.636;23.376;2024-02-15T13:30:12;9.85;;;4.60;;
70233;SDS011;75981;42.636;23.376;2024-02-15T13:32:38;11.07;;;4.60;;
70233;SDS011;75981;42.636;23.376;2024-02-15T13:35:08;9.60;;;4.50;;
70233;SDS011;75981;42.636;23.376;2024-02-15T13:37:46;8.77;;;4.53;;
70233;SDS011;75981;42.636;23.376;2024-02-15T13:40:14;9.55;;;4.60;;
70233;SDS011;75981;42.636;23.376;2024-02-15T13:42:46;9.13;;;4.75;;
70233;SDS011;75981;42.636;23.376;2024-02-15T13:47:47;11.40;;;5.43;;
70233;SDS011;75981;42.636;23.376;2024-02-15T13:50:13;13.00;;;5.45;;
70233;SDS011;75981;42.636;23.376;2024-02-15T13:52:42;10.32;;;5.43;;
70233;SDS011;75981;42.636;23.376;2024-02-15T13:57:40;9.32;;;4.88;;
70233;SDS011;75981;42.636;23.376;2024-02-15T14:00:10;9.88;;;4.95;;
70233;SDS011;75981;42.636;23.376;2024-02-15T14:02:46;14.68;;;5.45;;
70233;SDS011;75981;42.636;23.376;2024-02-15T14:10:11;9.05;;;4.38;;
70233;SDS011;75981;42.636;23.376;2024-02-15T14:12:37;12.23;;;4.57;;
70233;SDS011;75981;42.636;23.376;2024-02-15T14:15:04;9.02;;;4.28;;
70233;SDS011;75981;42.636;23.376;2024-02-15T14:17:31;12.68;;;4.95;;
70233;SDS011;75981;42.636;23.376;2024-02-15T14:19:56;13.93;;;4.55;;
70233;SDS011;75981;42.636;23.376;2024-02-15T14:22:22;10.18;;;4.40;;
70233;SDS011;75981;42.636;23.376;2024-02-15T14:24:49;10.98;;;4.10;;
70233;SDS011;75981;42.636;23.376;2024-02-15T14:27:15;11.57;;;4.63;;
70233;SDS011;75981;42.636;23.376;2024-02-15T14:29:40;9.25;;;4.47;;
70233;SDS011;75981;42.636;23.376;2024-02-15T14:32:25;11.48;;;6.05;;
70233;SDS011;75981;42.636;23.376;2024-02-15T14:35:09;13.52;;;5.45;;
70233;SDS011;75981;42.636;23.376;2024-02-15T14:37:36;12.05;;;5.57;;
70233;SDS011;75981;42.636;23.376;2024-02-15T14:40:01;12.32;;;4.78;;
70233;SDS011;75981;42.636;23.376;2024-02-15T14:42:28;10.07;;;5.30;;
70233;SDS011;75981;42.636;23.376;2024-02-15T14:44:54;12.23;;;5.30;;
70233;SDS011;75981;42.636;23.376;2024-02-15T14:47:19;11.23;;;6.18;;
70233;SDS011;75981;42.636;23.376;2024-02-15T14:49:45;12.32;;;5.90;;
70233;SDS011;75981;42.636;23.376;2024-02-15T14:52:13;11.77;;;5.65;;
70233;SDS011;75981;42.636;23.376;2024-02-15T14:54:39;11.55;;;5.18;;
70233;SDS011;75981;42.636;23.376;2024-02-15T14:57:05;15.98;;;5.72;;
70233;SDS011;75981;42.636;23.376;2024-02-15T14:59:31;14.60;;;5.70;;
70233;SDS011;75981;42.636;23.376;2024-02-15T15:01:58;10.75;;;5.00;;
70233;SDS011;75981;42.636;23.376;2024-02-15T15:04:33;10.90;;;4.70;;
70233;SDS011;75981;42.636;23.376;2024-02-15T15:07:22;9.02;;;4.80;;
70233;SDS011;75981;42.636;23.376;2024-02-15T15:10:07;10.65;;;5.18;;